Batavia, NY

7:59 AM EST on March 01, 2015 (GMT -0500)
Dansville Municipal | Change Station
CLOSE
Current Station
Airport
Location: Dansville,
Elevation: 659 ft
Nearby Weather Stations

Elev 659 ft 42.57 °N, 77.71 °W | Updated 5 minutes ago

Snow
Snow
18 °F
Feels Like 10 °F
N
6
Wind Variable Wind from SSE

Today
High -- | Low -- °F
--% Chance of Precip.
Yesterday
High -- | Low -- °F
Precip. -- in
6:49 AM 6:01 PM
Waxing Gibbous, 85% visible
Pressure 30.50 in
Visibility 5.0 miles
Clouds Mostly Cloudy 4400 ft
Overcast 5500 ft
Windchill 10 °F
Dew Point 14 °F
Humidity 84%
Rainfall 0.00 in
Snow Depth Not available.
UV 0 out of 12
Pollen .40 out of 12
Air Quality Not available.
Flu Activity Not available.
METAR KDSV 011254Z AUTO 15005KT 5SM -SN BR BKN044 OVC055 M08/M10 A3043 RMK AO2 SLP327 P0000 T10781100

More Conditions Fewer Conditions

Pressure 30.50 in
Visibility 5.0 miles
Clouds Mostly Cloudy 4400 ft
Overcast 5500 ft
Windchill 10 °F
Dew Point 14 °F
Humidity 84%
Rainfall 0.00 in
Snow Depth Not available.
UV 0 out of 12
Pollen .40 out of 12
Air Quality Not available.
Flu Activity Not available.
METAR KDSV 011254Z AUTO 15005KT 5SM -SN BR BKN044 OVC055 M08/M10 A3043 RMK AO2 SLP327 P0000 T10781100

More Conditions Fewer Conditions

10-Day Weather Forecast

Almanac

Astronomy

Mar. 01, 2015 Rise Set
Actual Time
Civil Twilight
Nautical Twilight
Astronomical Twilight
Moon
Length of Visible Light
Length of Day
Tomorrow will be .
, % of the Moon is Illuminated

Today's Extremes

State Highs State Lows

Community

WunderPhotos

Upload Photos

1,801,371 photos uploaded!

WunderBlogs® & News

Nearby

Air Quality

  Air Quality AQ Index Pollutant
Not available.

Snow Depth

Station Depth Elevation

Earthquake Activity

City Distance Mag. Time & Date
Minimum magnitude displayed is 2.5.

Coastal Water Temperatures

Place Temperature

Nearby Weather Stations